createdAt,value
2018-07-01T00:07:02.424Z,14.35
2018-07-01T00:16:58.592Z,14.11
2018-07-01T00:26:55.234Z,13.94
2018-07-01T00:36:53.604Z,13.77
2018-07-01T00:46:50.699Z,13.43
2018-07-01T00:56:46.917Z,13.24
2018-07-01T01:06:40.477Z,13.24
2018-07-01T01:16:37.755Z,13.10
2018-07-01T01:26:33.768Z,13.02
2018-07-01T01:36:33.498Z,12.74
2018-07-01T01:46:26.944Z,12.61
2018-07-01T01:56:24.341Z,12.49
2018-07-01T02:06:22.891Z,12.34
2018-07-01T02:16:20.075Z,12.06
2018-07-01T02:26:16.660Z,11.98
2018-07-01T02:36:14.710Z,11.78
2018-07-01T02:46:10.475Z,11.79
2018-07-01T02:56:08.913Z,11.68
2018-07-01T03:06:08.650Z,11.47
2018-07-01T03:16:07.391Z,11.34
2018-07-01T03:26:04.608Z,11.41
2018-07-01T03:36:03.501Z,11.38
2018-07-01T03:46:02.858Z,11.51
2018-07-01T03:55:58.884Z,11.67
2018-07-01T04:05:57.334Z,11.76
2018-07-01T04:15:57.277Z,12.03
2018-07-01T04:25:57.344Z,12.16
2018-07-01T04:35:55.504Z,12.52
2018-07-01T04:45:53.827Z,13.03
2018-07-01T04:55:54.156Z,13.25
2018-07-01T05:05:50.842Z,13.62
2018-07-01T05:15:49.045Z,13.55
2018-07-01T05:25:45.255Z,13.84
2018-07-01T05:35:45.022Z,14.32
2018-07-01T05:45:43.289Z,14.46
2018-07-01T05:55:41.257Z,14.54
2018-07-01T06:05:39.826Z,14.74
2018-07-01T06:15:37.009Z,15.18
2018-07-01T06:25:35.454Z,15.55
2018-07-01T06:35:34.609Z,15.83
2018-07-01T06:45:30.512Z,15.89
2018-07-01T06:55:30.275Z,16.15
2018-07-01T07:05:28.918Z,16.41
2018-07-01T07:15:27.918Z,16.93
2018-07-01T07:25:25.380Z,17.11
2018-07-01T07:35:17.277Z,17.11
2018-07-01T07:45:09.313Z,17.48
2018-07-01T07:55:05.349Z,18.13
2018-07-01T08:05:03.620Z,18.37
2018-07-01T08:15:01.470Z,18.21
2018-07-01T08:24:59.106Z,18.68
2018-07-01T08:34:58.922Z,18.61
2018-07-01T08:44:53.948Z,18.61
2018-07-01T08:54:51.192Z,18.46
2018-07-01T09:04:30.767Z,18.62
2018-07-01T09:14:30.530Z,18.46
2018-07-01T09:24:28.670Z,18.46
2018-07-01T09:34:26.745Z,18.89
2018-07-01T09:44:23.195Z,18.61
2018-07-01T09:54:23.190Z,18.67
2018-07-01T10:04:23.174Z,19.15
2018-07-01T10:14:21.932Z,19.51
2018-07-01T10:24:18.110Z,19.58
2018-07-01T10:34:24.941Z,20.46
2018-07-01T10:44:22.492Z,20.24
2018-07-01T10:54:18.685Z,20.74
2018-07-01T11:04:15.311Z,21.11
2018-07-01T11:13:52.496Z,21.11
2018-07-01T11:23:49.192Z,22.22
2018-07-01T11:33:28.516Z,22.26
2018-07-01T11:43:06.360Z,24.02
2018-07-01T11:52:44.389Z,23.15
2018-07-01T12:02:22.205Z,25.25
2018-07-01T12:12:05.091Z,25.38
2018-07-01T12:21:34.810Z,27.17
2018-07-01T12:31:13.808Z,26.20
2018-07-01T12:40:52.245Z,26.46
2018-07-01T12:50:30.323Z,28.43
2018-07-01T13:00:07.951Z,27.82
2018-07-01T13:09:45.654Z,26.49
2018-07-01T13:19:23.780Z,26.12
2018-07-01T13:29:01.109Z,27.61
2018-07-01T13:38:38.865Z,27.24
2018-07-01T13:48:17.196Z,27.41
2018-07-01T13:57:53.424Z,28.10
2018-07-01T14:07:29.358Z,28.24
2018-07-01T14:17:07.559Z,27.57
2018-07-01T14:27:02.252Z,23.49
2018-07-01T14:36:54.196Z,22.92
2018-07-01T14:46:23.158Z,24.82
2018-07-01T14:56:04.490Z,26.09
2018-07-01T15:05:47.604Z,27.27
2018-07-01T15:15:38.944Z,23.48
2018-07-01T15:25:33.070Z,22.62
2018-07-01T15:35:27.018Z,22.23
2018-07-01T15:45:24.452Z,22.04
2018-07-01T15:55:21.530Z,21.38
2018-07-01T16:05:16.778Z,21.72
2018-07-01T16:15:15.732Z,21.44
2018-07-01T16:25:14.460Z,20.99
2018-07-01T16:35:10.300Z,21.31
2018-07-01T16:45:06.510Z,20.76
2018-07-01T16:55:01.691Z,20.54
2018-07-01T17:04:58.020Z,20.42
2018-07-01T17:14:52.032Z,20.50
2018-07-01T17:24:48.763Z,20.20
2018-07-01T17:34:45.103Z,19.87
2018-07-01T17:44:42.824Z,19.87
2018-07-01T17:54:40.952Z,19.60
2018-07-01T18:04:37.776Z,19.53
2018-07-01T18:14:31.405Z,19.31
2018-07-01T18:24:53.945Z,19.09
2018-07-01T18:34:15.820Z,18.90
2018-07-01T18:44:13.407Z,18.74
2018-07-01T18:54:12.020Z,18.61
2018-07-01T19:04:08.439Z,18.42
2018-07-01T19:14:03.748Z,18.32
2018-07-01T19:24:01.600Z,18.27
2018-07-01T19:33:59.034Z,18.21
2018-07-01T19:43:51.890Z,18.21
2018-07-01T19:53:49.004Z,18.09
2018-07-01T20:03:43.375Z,18.18
2018-07-01T20:13:37.780Z,18.03
2018-07-01T20:23:33.931Z,17.94
2018-07-01T20:33:32.424Z,17.81
2018-07-01T20:43:31.375Z,17.70
2018-07-01T20:53:27.700Z,17.63
2018-07-01T21:03:23.019Z,17.58
2018-07-01T21:13:18.568Z,17.53
2018-07-01T21:23:15.621Z,17.28
2018-07-01T21:33:10.104Z,17.14
2018-07-01T21:43:06.662Z,16.88
2018-07-01T21:53:04.976Z,16.66
2018-07-01T22:02:58.170Z,16.70
2018-07-01T22:12:52.840Z,16.42
2018-07-01T22:22:52.183Z,16.29
2018-07-01T22:32:45.793Z,15.86
2018-07-01T22:42:38.040Z,15.49
2018-07-01T22:52:34.416Z,15.34
2018-07-01T23:02:31.344Z,15.35
2018-07-01T23:12:27.765Z,15.18
2018-07-01T23:22:22.257Z,14.84
2018-07-01T23:32:15.213Z,14.97
2018-07-01T23:42:08.529Z,14.69
2018-07-01T23:52:03.229Z,14.83
